createdAt,value
2018-12-03T00:00:10.614Z,4.82
2018-12-03T00:02:39.661Z,4.81
2018-12-03T00:05:08.712Z,4.83
2018-12-03T00:07:37.791Z,4.81
2018-12-03T00:10:06.848Z,4.84
2018-12-03T00:12:35.934Z,4.86
2018-12-03T00:15:05.103Z,4.85
2018-12-03T00:17:34.153Z,4.87
2018-12-03T00:20:03.190Z,4.87
2018-12-03T00:22:32.339Z,4.89
2018-12-03T00:25:01.340Z,4.92
2018-12-03T00:27:30.392Z,4.93
2018-12-03T00:29:59.480Z,4.91
2018-12-03T00:32:28.526Z,4.92
2018-12-03T00:34:57.574Z,4.94
2018-12-03T00:37:26.656Z,4.97
2018-12-03T00:39:55.678Z,4.99
2018-12-03T00:42:35.027Z,5.00
2018-12-03T00:45:04.044Z,5.01
2018-12-03T00:47:33.087Z,5.01
2018-12-03T00:50:02.171Z,5.04
2018-12-03T00:52:31.226Z,5.06
2018-12-03T00:55:00.266Z,5.07
2018-12-03T00:57:29.422Z,5.08
2018-12-03T00:59:58.487Z,5.08
2018-12-03T01:02:27.544Z,5.06
2018-12-03T01:04:56.635Z,5.09
2018-12-03T01:07:25.689Z,5.11
2018-12-03T01:09:54.727Z,5.13
2018-12-03T01:12:23.832Z,5.14
2018-12-03T01:14:52.867Z,5.16
2018-12-03T01:17:21.916Z,5.17
2018-12-03T01:19:50.997Z,5.18
2018-12-03T01:22:20.056Z,5.20
2018-12-03T01:24:49.110Z,5.20
2018-12-03T01:27:18.251Z,5.21
2018-12-03T01:29:47.294Z,5.22
2018-12-03T01:32:16.352Z,5.25
2018-12-03T01:34:45.429Z,5.27
2018-12-03T01:37:14.487Z,5.28
2018-12-03T01:39:43.539Z,5.28
2018-12-03T01:42:12.835Z,5.29
2018-12-03T01:44:41.889Z,5.31
2018-12-03T01:47:10.941Z,5.31
2018-12-03T01:49:40.110Z,5.28
2018-12-03T01:52:09.162Z,5.28
2018-12-03T01:54:38.210Z,5.29
2018-12-03T01:57:07.292Z,5.31
2018-12-03T01:59:36.348Z,5.34
2018-12-03T02:02:05.401Z,5.33
2018-12-03T02:04:34.703Z,5.34
2018-12-03T02:07:03.755Z,5.36
2018-12-03T02:09:32.805Z,5.37
2018-12-03T02:12:01.913Z,5.40
2018-12-03T02:14:30.971Z,5.39
2018-12-03T02:17:00.022Z,5.39
2018-12-03T02:19:29.106Z,5.43
2018-12-03T02:21:58.178Z,5.45
2018-12-03T02:24:27.216Z,5.47
2018-12-03T02:26:56.290Z,5.48
2018-12-03T02:29:25.343Z,5.49
2018-12-03T02:32:15.712Z,5.50
2018-12-03T02:34:44.762Z,5.51
2018-12-03T02:37:13.812Z,5.52
2018-12-03T02:39:42.886Z,5.53
2018-12-03T02:42:11.933Z,5.55
2018-12-03T02:44:40.982Z,5.57
2018-12-03T02:47:10.061Z,5.59
2018-12-03T02:49:39.104Z,5.60
2018-12-03T02:52:08.160Z,5.63
2018-12-03T02:54:37.267Z,5.63
2018-12-03T02:57:06.324Z,5.64
2018-12-03T02:59:35.372Z,5.63
2018-12-03T03:05:13.214Z,5.66
2018-12-03T03:07:42.308Z,5.65
2018-12-03T03:10:11.364Z,5.68
2018-12-03T03:12:40.432Z,5.71
2018-12-03T03:15:09.536Z,5.72
2018-12-03T03:17:38.589Z,5.74
2018-12-03T03:20:07.626Z,5.74
2018-12-03T03:22:36.707Z,5.76
2018-12-03T03:25:05.771Z,5.78
2018-12-03T03:27:34.861Z,5.78
2018-12-03T03:30:03.920Z,5.78
2018-12-03T03:32:34.891Z,5.81
2018-12-03T03:35:02.025Z,5.84
2018-12-03T03:37:31.114Z,5.86
2018-12-03T03:40:00.163Z,5.87
2018-12-03T03:42:29.200Z,5.87
2018-12-03T03:44:58.283Z,5.88
2018-12-03T03:47:27.324Z,5.89
2018-12-03T03:49:56.366Z,5.91
2018-12-03T03:52:25.435Z,5.93
2018-12-03T03:54:54.490Z,5.94
2018-12-03T03:57:23.533Z,5.94
2018-12-03T03:59:52.626Z,5.93
2018-12-03T04:02:21.665Z,5.92
2018-12-03T04:04:50.740Z,5.92
2018-12-03T04:07:19.824Z,5.93
2018-12-03T04:09:48.856Z,5.94
2018-12-03T04:12:17.917Z,5.94
2018-12-03T04:14:47.000Z,5.95
2018-12-03T04:17:16.055Z,5.95
2018-12-03T04:19:45.111Z,5.94
2018-12-03T04:22:14.226Z,5.95
2018-12-03T04:24:43.254Z,5.96
2018-12-03T04:27:12.306Z,5.97
2018-12-03T04:29:41.380Z,5.99
2018-12-03T04:32:10.430Z,6.00
2018-12-03T04:34:39.480Z,6.01
2018-12-03T04:37:08.947Z,6.02
2018-12-03T04:39:37.995Z,6.01
2018-12-03T04:42:07.036Z,6.02
2018-12-03T04:44:36.151Z,6.04
2018-12-03T04:47:05.194Z,6.04
2018-12-03T04:49:34.254Z,6.07
2018-12-03T04:52:05.308Z,6.08
2018-12-03T04:54:34.366Z,6.09
2018-12-03T04:57:03.398Z,6.09
2018-12-03T04:59:32.476Z,6.10
2018-12-03T05:02:01.522Z,6.12
2018-12-03T05:04:30.563Z,6.15
2018-12-03T05:06:59.667Z,6.14
2018-12-03T05:09:28.720Z,6.15
2018-12-03T05:11:57.763Z,6.16
2018-12-03T05:14:26.847Z,6.17
2018-12-03T05:16:55.915Z,6.19
2018-12-03T05:19:24.981Z,6.21
2018-12-03T05:21:54.050Z,6.23
2018-12-03T05:24:23.095Z,6.24
2018-12-03T05:26:52.148Z,6.24
2018-12-03T05:29:21.242Z,6.27
2018-12-03T05:32:03.987Z,6.28
2018-12-03T05:34:33.058Z,6.29
2018-12-03T05:37:02.111Z,6.31
2018-12-03T05:39:31.154Z,6.33
2018-12-03T05:42:00.225Z,6.31
2018-12-03T05:44:29.277Z,6.33
2018-12-03T05:46:58.337Z,6.33
2018-12-03T05:49:27.439Z,6.32
2018-12-03T05:51:56.489Z,6.34
2018-12-03T05:54:25.534Z,6.36
2018-12-03T05:56:54.617Z,6.37
2018-12-03T05:59:23.670Z,6.35
2018-12-03T06:01:52.706Z,6.35
2018-12-03T06:04:21.786Z,6.36
2018-12-03T06:06:50.848Z,6.38
2018-12-03T06:09:19.886Z,6.40
2018-12-03T06:12:02.696Z,6.41
2018-12-03T06:14:31.742Z,6.41
2018-12-03T06:17:00.797Z,6.44
2018-12-03T06:19:29.871Z,6.44
2018-12-03T06:21:58.919Z,6.47
2018-12-03T06:24:27.973Z,6.49
2018-12-03T06:26:57.050Z,6.50
2018-12-03T06:29:26.107Z,6.48
2018-12-03T06:31:55.156Z,6.48
2018-12-03T06:34:24.269Z,6.49
2018-12-03T06:36:53.334Z,6.52
2018-12-03T06:39:22.404Z,6.52
2018-12-03T06:42:03.748Z,6.55
2018-12-03T06:44:32.803Z,6.55
2018-12-03T06:47:01.859Z,6.56
2018-12-03T06:49:30.973Z,6.59
2018-12-03T06:51:59.743Z,6.61
2018-12-03T06:54:28.781Z,6.63
2018-12-03T06:56:57.869Z,6.64
2018-12-03T06:59:26.917Z,6.66
2018-12-03T07:02:01.255Z,6.66
2018-12-03T07:04:30.316Z,6.69
2018-12-03T07:06:59.365Z,6.71
2018-12-03T07:09:28.464Z,6.73
2018-12-03T07:11:57.511Z,6.75
2018-12-03T07:14:26.568Z,6.78
2018-12-03T07:16:55.660Z,6.80
2018-12-03T07:19:24.693Z,6.82
2018-12-03T07:21:53.762Z,6.85
2018-12-03T07:24:22.840Z,6.88
2018-12-03T07:26:51.886Z,6.89
2018-12-03T07:29:20.970Z,6.92
2018-12-03T07:31:50.360Z,6.96
2018-12-03T07:34:19.403Z,6.99
2018-12-03T07:36:48.467Z,7.01
2018-12-03T07:39:17.542Z,7.04
2018-12-03T07:41:46.599Z,7.07
2018-12-03T07:44:15.651Z,7.11
2018-12-03T07:46:44.723Z,7.14
2018-12-03T07:49:13.779Z,7.18
2018-12-03T07:51:42.833Z,7.22
2018-12-03T07:54:13.112Z,7.26
2018-12-03T07:56:40.974Z,7.31
2018-12-03T07:59:10.040Z,7.34
2018-12-03T08:01:39.122Z,7.38
2018-12-03T08:04:08.167Z,7.40
2018-12-03T08:06:37.256Z,7.41
2018-12-03T08:09:06.420Z,7.44
2018-12-03T08:11:35.466Z,7.47
2018-12-03T08:14:04.523Z,7.48
2018-12-03T08:16:34.027Z,7.50
2018-12-03T08:19:03.082Z,7.55
2018-12-03T08:21:48.799Z,7.61
2018-12-03T08:24:17.861Z,7.66
2018-12-03T08:26:46.923Z,7.71
2018-12-03T08:29:16.011Z,7.77
2018-12-03T08:31:45.063Z,7.87
2018-12-03T08:34:14.113Z,7.97
2018-12-03T08:36:43.224Z,8.05
2018-12-03T08:39:12.271Z,8.13
2018-12-03T08:41:41.338Z,8.19
2018-12-03T08:44:10.427Z,8.25
2018-12-03T08:46:39.499Z,8.31
2018-12-03T08:49:08.556Z,8.34
2018-12-03T08:51:37.669Z,8.35
2018-12-03T08:54:06.729Z,8.39
2018-12-03T08:56:35.781Z,8.40
2018-12-03T08:59:04.892Z,8.38
2018-12-03T09:01:33.941Z,8.37
2018-12-03T09:04:02.996Z,8.43
2018-12-03T09:06:32.073Z,8.49
2018-12-03T09:09:01.123Z,8.58
2018-12-03T09:11:35.942Z,8.65
2018-12-03T09:14:04.999Z,8.71
2018-12-03T09:16:34.055Z,8.74
2018-12-03T09:19:03.442Z,8.75
2018-12-03T09:21:32.482Z,8.76
2018-12-03T09:24:01.536Z,8.78
2018-12-03T09:26:30.619Z,8.80
2018-12-03T09:28:59.674Z,8.82
2018-12-03T09:31:28.742Z,8.87
2018-12-03T09:33:57.818Z,8.90
2018-12-03T09:36:26.859Z,8.96
2018-12-03T09:38:56.835Z,9.01
2018-12-03T09:41:25.944Z,9.06
2018-12-03T09:43:55.009Z,9.10
2018-12-03T09:46:24.057Z,9.14
2018-12-03T09:48:53.135Z,9.18
2018-12-03T09:51:22.188Z,9.21
2018-12-03T09:53:51.392Z,9.28
2018-12-03T09:56:20.466Z,9.34
2018-12-03T09:58:49.528Z,9.39
2018-12-03T10:01:18.578Z,9.43
2018-12-03T10:03:47.716Z,9.45
2018-12-03T10:06:16.764Z,9.48
2018-12-03T10:08:45.827Z,9.54
2018-12-03T10:11:19.394Z,9.61
2018-12-03T10:13:48.440Z,9.69
2018-12-03T10:16:17.507Z,9.75
2018-12-03T10:18:46.578Z,9.80
2018-12-03T10:21:15.641Z,9.86
2018-12-03T10:23:44.693Z,9.92
2018-12-03T10:26:13.800Z,9.98
2018-12-03T10:28:42.858Z,10.02
2018-12-03T10:31:11.916Z,10.06
2018-12-03T10:33:41.003Z,10.12
2018-12-03T10:36:10.063Z,10.17
2018-12-03T10:38:39.120Z,10.19
2018-12-03T10:41:08.216Z,10.22
2018-12-03T10:43:37.268Z,10.22
2018-12-03T10:46:06.339Z,10.24
2018-12-03T10:48:35.461Z,10.25
2018-12-03T10:51:04.504Z,10.26
2018-12-03T10:53:33.564Z,10.28
2018-12-03T10:56:02.655Z,10.29
2018-12-03T10:58:31.764Z,10.30
2018-12-03T11:01:06.372Z,10.30
2018-12-03T11:03:40.444Z,10.27
2018-12-03T11:06:15.062Z,10.26
2018-12-03T11:08:44.119Z,10.25
2018-12-03T11:11:13.179Z,10.20
2018-12-03T11:13:42.257Z,10.22
2018-12-03T11:16:11.315Z,10.23
2018-12-03T11:18:40.371Z,10.25
2018-12-03T11:21:09.457Z,10.28
2018-12-03T11:23:38.529Z,10.29
2018-12-03T11:26:07.575Z,10.32
2018-12-03T11:28:36.697Z,10.35
2018-12-03T11:31:05.781Z,10.36
2018-12-03T11:33:34.855Z,10.36
2018-12-03T11:36:03.942Z,10.37
2018-12-03T11:38:33.002Z,10.36
2018-12-03T11:41:14.982Z,10.36
2018-12-03T11:43:44.042Z,10.36
2018-12-03T11:46:13.106Z,10.35
2018-12-03T11:48:42.212Z,10.35
2018-12-03T11:51:11.267Z,10.38
2018-12-03T11:53:40.316Z,10.39
2018-12-03T11:56:09.412Z,10.40
2018-12-03T11:58:38.481Z,10.42
2018-12-03T12:01:07.539Z,10.43
2018-12-03T12:03:36.624Z,10.43
2018-12-03T12:06:05.683Z,10.44
2018-12-03T12:08:34.750Z,10.45
2018-12-03T12:11:03.874Z,10.46
2018-12-03T12:13:32.934Z,10.45
2018-12-03T12:16:01.990Z,10.45
2018-12-03T12:18:31.070Z,10.47
2018-12-03T12:21:01.138Z,10.47
2018-12-03T12:23:30.192Z,10.51
2018-12-03T12:25:59.269Z,10.55
2018-12-03T12:28:28.322Z,10.58
2018-12-03T12:30:57.373Z,10.61
2018-12-03T12:33:26.507Z,10.64
2018-12-03T12:35:55.602Z,10.61
2018-12-03T12:38:24.703Z,10.63
2018-12-03T12:40:53.748Z,10.64
2018-12-03T12:43:22.813Z,10.68
2018-12-03T12:45:51.879Z,10.70
2018-12-03T12:48:20.955Z,10.75
2018-12-03T12:50:50.011Z,10.78
2018-12-03T12:53:19.065Z,10.79
2018-12-03T12:55:48.164Z,10.80
2018-12-03T12:58:17.333Z,10.74
2018-12-03T13:00:46.386Z,10.71
2018-12-03T13:03:15.474Z,10.79
2018-12-03T13:05:44.534Z,10.79
2018-12-03T13:08:13.597Z,10.81
2018-12-03T13:10:42.677Z,10.84
2018-12-03T13:13:11.735Z,10.84
2018-12-03T13:15:40.789Z,10.84
2018-12-03T13:18:09.909Z,10.84
2018-12-03T13:20:38.982Z,10.81
2018-12-03T13:23:08.038Z,10.82
2018-12-03T13:25:37.141Z,10.81
2018-12-03T13:28:06.206Z,10.81
2018-12-03T13:30:35.267Z,10.79
2018-12-03T13:33:04.349Z,10.80
2018-12-03T13:35:33.416Z,10.77
2018-12-03T13:38:02.489Z,10.77
2018-12-03T13:40:31.599Z,10.75
2018-12-03T13:43:00.662Z,10.74
2018-12-03T13:45:29.725Z,10.74
2018-12-03T13:47:58.800Z,10.72
2018-12-03T13:50:27.854Z,10.69
2018-12-03T13:52:56.924Z,10.67
2018-12-03T13:55:26.006Z,10.65
2018-12-03T13:57:55.066Z,10.63
2018-12-03T14:00:24.143Z,10.61
2018-12-03T14:02:53.245Z,10.59
2018-12-03T14:05:22.502Z,10.59
2018-12-03T14:07:51.565Z,10.57
2018-12-03T14:10:20.653Z,10.55
2018-12-03T14:12:49.712Z,10.54
2018-12-03T14:15:18.760Z,10.53
2018-12-03T14:17:47.834Z,10.51
2018-12-03T14:20:16.905Z,10.51
2018-12-03T14:22:45.961Z,10.49
2018-12-03T14:25:15.187Z,10.48
2018-12-03T14:27:44.249Z,10.46
2018-12-03T14:30:13.337Z,10.45
2018-12-03T14:32:42.423Z,10.41
2018-12-03T14:35:11.483Z,10.40
2018-12-03T14:37:40.536Z,10.39
2018-12-03T14:40:09.645Z,10.39
2018-12-03T14:42:38.700Z,10.38
2018-12-03T14:45:07.767Z,10.38
2018-12-03T14:47:36.881Z,10.38
2018-12-03T14:50:05.944Z,10.38
2018-12-03T14:52:34.990Z,10.38
2018-12-03T14:55:04.097Z,10.37
2018-12-03T14:57:33.147Z,10.37
2018-12-03T15:00:02.276Z,10.36
2018-12-03T15:02:31.295Z,10.35
2018-12-03T15:05:00.366Z,10.34
2018-12-03T15:07:29.412Z,10.34
2018-12-03T15:09:58.508Z,10.32
2018-12-03T15:12:27.576Z,10.35
2018-12-03T15:14:56.649Z,10.36
2018-12-03T15:17:25.739Z,10.36
2018-12-03T15:19:54.807Z,10.35
2018-12-03T15:22:23.869Z,10.34
2018-12-03T15:24:52.948Z,10.34
2018-12-03T15:27:22.016Z,10.32
2018-12-03T15:29:51.079Z,10.32
2018-12-03T15:32:20.173Z,10.30
2018-12-03T15:34:49.237Z,10.30
2018-12-03T15:37:18.307Z,10.30
2018-12-03T15:39:47.397Z,10.29
2018-12-03T15:42:18.438Z,10.30
2018-12-03T15:44:47.770Z,10.29
2018-12-03T15:47:16.866Z,10.30
2018-12-03T15:49:45.910Z,10.28
2018-12-03T15:52:14.970Z,10.26
2018-12-03T15:54:44.180Z,10.26
2018-12-03T15:57:13.248Z,10.27
2018-12-03T15:59:42.301Z,10.27
2018-12-03T16:02:11.375Z,10.27
2018-12-03T16:04:40.434Z,10.25
2018-12-03T16:07:09.521Z,10.28
2018-12-03T16:09:38.613Z,10.27
2018-12-03T16:12:07.674Z,10.28
2018-12-03T16:14:36.730Z,10.31
2018-12-03T16:17:05.912Z,10.33
2018-12-03T16:19:34.977Z,10.34
2018-12-03T16:22:06.008Z,10.34
2018-12-03T16:24:35.092Z,10.35
2018-12-03T16:27:04.162Z,10.35
2018-12-03T16:29:33.224Z,10.35
2018-12-03T16:32:02.315Z,10.36
2018-12-03T16:34:31.436Z,10.38
2018-12-03T16:37:00.503Z,10.37
2018-12-03T16:39:29.710Z,10.36
2018-12-03T16:41:58.813Z,10.35
2018-12-03T16:44:27.869Z,10.35
2018-12-03T16:46:56.945Z,10.36
2018-12-03T16:49:26.013Z,10.36
2018-12-03T16:51:55.071Z,10.35
2018-12-03T16:54:24.151Z,10.33
2018-12-03T16:56:53.201Z,10.31
2018-12-03T16:59:22.257Z,10.29
2018-12-03T17:01:51.358Z,10.26
2018-12-03T17:04:20.416Z,10.25
2018-12-03T17:06:49.486Z,10.23
2018-12-03T17:09:18.582Z,10.19
2018-12-03T17:11:57.933Z,10.19
2018-12-03T17:14:27.037Z,10.19
2018-12-03T17:16:56.107Z,10.20
2018-12-03T17:19:25.197Z,10.18
2018-12-03T17:21:54.347Z,10.17
2018-12-03T17:24:23.408Z,10.18
2018-12-03T17:26:52.472Z,10.18
2018-12-03T17:29:21.562Z,10.20
2018-12-03T17:31:50.616Z,10.22
2018-12-03T17:34:19.681Z,10.23
2018-12-03T17:36:48.774Z,10.24
2018-12-03T17:39:17.842Z,10.25
2018-12-03T17:41:46.908Z,10.25
2018-12-03T17:44:16.071Z,10.25
2018-12-03T17:46:45.143Z,10.23
2018-12-03T17:49:14.195Z,10.22
2018-12-03T17:51:59.791Z,10.21
2018-12-03T17:54:28.853Z,10.20
2018-12-03T17:56:57.912Z,10.21
2018-12-03T17:59:27.016Z,10.21
2018-12-03T18:01:56.072Z,10.20
2018-12-03T18:04:25.126Z,10.20
2018-12-03T18:06:54.209Z,10.20
2018-12-03T18:09:23.271Z,10.18
2018-12-03T18:11:52.333Z,10.16
2018-12-03T18:14:21.420Z,10.11
2018-12-03T18:16:50.493Z,10.09
2018-12-03T18:19:19.562Z,10.05
2018-12-03T18:22:05.146Z,10.07
2018-12-03T18:24:34.189Z,10.07
2018-12-03T18:27:03.256Z,10.06
2018-12-03T18:29:32.346Z,10.05
2018-12-03T18:32:01.411Z,10.02
2018-12-03T18:34:30.472Z,9.98
2018-12-03T18:36:59.551Z,9.96
2018-12-03T18:39:28.610Z,9.93
2018-12-03T18:41:57.701Z,9.90
2018-12-03T18:44:26.823Z,9.86
2018-12-03T18:46:55.893Z,9.82
2018-12-03T18:49:24.955Z,9.76
2018-12-03T18:51:54.049Z,9.70
2018-12-03T18:54:23.104Z,9.63
2018-12-03T18:56:52.160Z,9.58
2018-12-03T18:59:21.246Z,9.54
2018-12-03T19:01:50.302Z,9.55
2018-12-03T19:04:19.362Z,9.56
2018-12-03T19:06:48.462Z,9.55
2018-12-03T19:09:17.523Z,9.54
2018-12-03T19:11:46.642Z,9.50
2018-12-03T19:14:15.716Z,9.45
2018-12-03T19:16:44.819Z,9.41
2018-12-03T19:19:13.881Z,9.35
2018-12-03T19:21:43.455Z,9.29
2018-12-03T19:24:12.501Z,9.25
2018-12-03T19:26:41.555Z,9.24
2018-12-03T19:29:10.765Z,9.24
2018-12-03T19:31:39.832Z,9.26
2018-12-03T19:34:08.886Z,9.29
2018-12-03T19:36:37.975Z,9.31
2018-12-03T19:39:07.037Z,9.36
2018-12-03T19:41:36.111Z,9.41
2018-12-03T19:44:05.184Z,9.46
2018-12-03T19:46:34.255Z,9.50
2018-12-03T19:49:03.327Z,9.55
2018-12-03T19:51:32.581Z,9.59
2018-12-03T19:54:01.673Z,9.61
2018-12-03T19:56:30.711Z,9.64
2018-12-03T19:58:59.793Z,9.67
2018-12-03T20:01:28.851Z,9.69
2018-12-03T20:03:58.016Z,9.72
2018-12-03T20:06:27.090Z,9.75
2018-12-03T20:08:56.148Z,9.75
2018-12-03T20:11:27.162Z,9.77
2018-12-03T20:13:56.272Z,9.79
2018-12-03T20:16:25.325Z,9.82
2018-12-03T20:18:54.385Z,9.84
2018-12-03T20:21:23.465Z,9.87
2018-12-03T20:23:52.519Z,9.89
2018-12-03T20:26:21.585Z,9.91
2018-12-03T20:28:50.689Z,9.92
2018-12-03T20:31:37.441Z,9.92
2018-12-03T20:34:06.638Z,9.91
2018-12-03T20:36:35.701Z,9.90
2018-12-03T20:39:04.761Z,9.90
2018-12-03T20:41:33.859Z,9.91
2018-12-03T20:44:02.923Z,9.90
2018-12-03T20:46:31.970Z,9.90
2018-12-03T20:49:01.054Z,9.87
2018-12-03T20:51:30.110Z,9.85
2018-12-03T20:53:59.166Z,9.84
2018-12-03T20:56:28.280Z,9.83
2018-12-03T20:58:57.321Z,9.85
2018-12-03T21:01:38.169Z,9.84
2018-12-03T21:04:07.222Z,9.84
2018-12-03T21:06:36.267Z,9.86
2018-12-03T21:09:05.335Z,9.89
2018-12-03T21:11:34.379Z,9.92
2018-12-03T21:14:03.436Z,9.96
2018-12-03T21:16:32.544Z,9.99
2018-12-03T21:19:01.611Z,10.01
2018-12-03T21:21:41.762Z,10.03
2018-12-03T21:24:10.817Z,10.07
2018-12-03T21:26:39.891Z,10.09
2018-12-03T21:29:08.976Z,10.10
2018-12-03T21:31:45.506Z,10.13
2018-12-03T21:34:14.646Z,10.15
2018-12-03T21:36:43.694Z,10.16
2018-12-03T21:39:12.759Z,10.17
2018-12-03T21:41:41.847Z,10.16
2018-12-03T21:44:10.909Z,10.15
2018-12-03T21:46:39.970Z,10.17
2018-12-03T21:49:09.057Z,10.18
2018-12-03T21:51:38.119Z,10.18
2018-12-03T21:54:07.163Z,10.20
2018-12-03T21:56:36.291Z,10.22
2018-12-03T21:59:05.354Z,10.23
2018-12-03T22:01:34.414Z,10.24
2018-12-03T22:04:03.490Z,10.25
2018-12-03T22:06:32.546Z,10.26
2018-12-03T22:09:01.612Z,10.27
2018-12-03T22:11:30.707Z,10.28
2018-12-03T22:13:59.750Z,10.28
2018-12-03T22:16:28.813Z,10.30
2018-12-03T22:18:57.928Z,10.31
2018-12-03T22:24:27.773Z,10.32
2018-12-03T22:26:56.840Z,10.33
2018-12-03T22:29:25.907Z,10.34
2018-12-03T22:31:55.108Z,10.35
2018-12-03T22:34:24.170Z,10.32
2018-12-03T22:36:53.213Z,10.30
2018-12-03T22:39:22.411Z,10.28
2018-12-03T22:41:51.471Z,10.22
2018-12-03T22:44:20.534Z,10.20
2018-12-03T22:46:49.633Z,10.19
2018-12-03T22:49:18.764Z,10.15
2018-12-03T22:51:47.822Z,10.15
2018-12-03T22:54:16.893Z,10.14
2018-12-03T22:56:45.957Z,10.15
2018-12-03T22:59:15.022Z,10.13
2018-12-03T23:01:45.131Z,10.10
2018-12-03T23:04:14.183Z,10.07
2018-12-03T23:06:43.309Z,10.00
2018-12-03T23:09:12.395Z,9.94
2018-12-03T23:11:41.454Z,9.90
2018-12-03T23:14:10.500Z,9.87
2018-12-03T23:16:39.591Z,9.85
2018-12-03T23:19:08.656Z,9.83
2018-12-03T23:21:37.703Z,9.82
2018-12-03T23:24:06.801Z,9.81
2018-12-03T23:26:35.840Z,9.80
2018-12-03T23:29:04.877Z,9.81
2018-12-03T23:31:33.954Z,9.81
2018-12-03T23:34:02.994Z,9.81
2018-12-03T23:36:32.044Z,9.82
2018-12-03T23:39:01.214Z,9.83
2018-12-03T23:41:30.254Z,9.82
2018-12-03T23:43:59.297Z,9.76
2018-12-03T23:46:28.769Z,9.68
2018-12-03T23:48:57.831Z,9.61
2018-12-03T23:51:26.883Z,9.52
2018-12-03T23:53:56.033Z,9.44
2018-12-03T23:56:25.093Z,9.40
2018-12-03T23:58:54.145Z,9.36
